createdAt,value
2023-01-23T00:00:00.993Z,66.63
2023-01-23T00:01:04.747Z,66.72
2023-01-23T00:02:07.788Z,66.32
2023-01-23T00:03:09.736Z,66.78
2023-01-23T00:04:14.766Z,65.54
2023-01-23T00:05:16.953Z,66.70
2023-01-23T00:06:19.978Z,66.66
2023-01-23T00:07:21.948Z,66.04
2023-01-23T00:08:24.878Z,66.06
2023-01-23T00:09:28.184Z,66.70
2023-01-23T00:10:31.118Z,66.98
2023-01-23T00:11:33.236Z,66.05
2023-01-23T00:12:36.190Z,66.41
2023-01-23T00:13:38.457Z,65.60
2023-01-23T00:14:41.301Z,66.49
2023-01-23T00:15:43.410Z,65.97
2023-01-23T00:16:46.390Z,66.89
2023-01-23T00:17:52.164Z,66.34
2023-01-23T00:18:57.319Z,66.43
2023-01-23T00:19:59.610Z,66.34
2023-01-23T00:21:05.780Z,66.46
2023-01-23T00:22:08.690Z,66.48
2023-01-23T00:23:11.237Z,65.44
2023-01-23T00:24:14.366Z,66.77
2023-01-23T00:25:17.871Z,65.83
2023-01-23T00:26:24.756Z,66.05
2023-01-23T00:27:26.866Z,65.67
2023-01-23T00:28:29.827Z,66.92
2023-01-23T00:29:32.739Z,66.62
2023-01-23T00:30:34.751Z,66.60
2023-01-23T00:31:40.226Z,66.16
2023-01-23T00:32:43.524Z,66.80
2023-01-23T00:33:47.386Z,66.64
2023-01-23T00:34:50.733Z,66.78
2023-01-23T00:35:54.508Z,66.30
2023-01-23T00:36:57.433Z,65.88
2023-01-23T00:37:59.357Z,65.81
2023-01-23T00:39:03.032Z,66.89
2023-01-23T00:40:06.000Z,66.12
2023-01-23T00:41:10.513Z,66.21
2023-01-23T00:42:12.564Z,66.55
2023-01-23T00:43:15.421Z,67.04
2023-01-23T00:44:18.707Z,66.52
2023-01-23T00:45:20.580Z,65.99
2023-01-23T00:46:23.884Z,66.67
2023-01-23T00:47:26.135Z,66.28
2023-01-23T00:48:29.487Z,67.04
2023-01-23T00:49:31.590Z,66.57
2023-01-23T00:50:35.182Z,66.68
2023-01-23T00:51:38.468Z,66.26
2023-01-23T00:52:41.350Z,67.20
2023-01-23T00:53:44.046Z,66.72
2023-01-23T00:54:47.157Z,66.54
2023-01-23T00:55:49.053Z,67.08
2023-01-23T00:56:53.427Z,66.79
2023-01-23T00:57:57.707Z,66.07
2023-01-23T00:59:00.722Z,66.25
2023-01-23T01:00:03.185Z,66.46
2023-01-23T01:01:06.447Z,67.11
2023-01-23T01:02:08.635Z,66.79
2023-01-23T01:03:11.658Z,66.11
2023-01-23T01:04:13.634Z,66.61
2023-01-23T01:05:18.223Z,66.81
2023-01-23T01:06:22.492Z,67.02
2023-01-23T01:07:25.931Z,66.69
2023-01-23T01:08:28.124Z,65.96
2023-01-23T01:09:33.144Z,67.19
2023-01-23T01:10:35.136Z,66.82
2023-01-23T01:11:38.093Z,66.83
2023-01-23T01:12:41.687Z,66.30
2023-01-23T01:13:45.523Z,66.48
2023-01-23T01:14:47.514Z,66.65
2023-01-23T01:15:52.615Z,66.26
2023-01-23T01:16:54.583Z,66.95
2023-01-23T01:17:57.688Z,67.20
2023-01-23T01:19:00.639Z,65.89
2023-01-23T01:20:04.118Z,66.70
2023-01-23T01:21:08.718Z,66.17
2023-01-23T01:22:10.814Z,66.99
2023-01-23T01:23:14.064Z,66.62
2023-01-23T01:24:16.046Z,66.81
2023-01-23T01:25:19.307Z,67.12
2023-01-23T01:26:23.006Z,66.20
2023-01-23T01:27:26.831Z,67.27
2023-01-23T01:28:34.490Z,66.27
2023-01-23T01:29:37.426Z,66.40
2023-01-23T01:30:41.223Z,66.44
2023-01-23T01:31:44.369Z,66.91
2023-01-23T01:32:47.843Z,66.36
2023-01-23T01:33:51.091Z,66.25
2023-01-23T01:34:54.149Z,66.13
2023-01-23T01:35:57.277Z,66.68
2023-01-23T01:36:59.211Z,66.57
2023-01-23T01:38:02.095Z,67.25
2023-01-23T01:39:04.178Z,66.03
2023-01-23T01:40:09.872Z,67.15
2023-01-23T01:41:13.265Z,67.26
2023-01-23T01:42:16.205Z,67.01
2023-01-23T01:43:21.270Z,67.23
2023-01-23T01:44:26.473Z,66.94
2023-01-23T01:46:06.096Z,67.13
2023-01-23T01:47:10.929Z,66.33
2023-01-23T01:48:13.139Z,66.44
2023-01-23T01:49:20.100Z,66.86
2023-01-23T01:50:22.535Z,66.00
2023-01-23T01:51:30.905Z,67.26
2023-01-23T01:52:32.827Z,67.21
2023-01-23T01:53:37.707Z,66.84
2023-01-23T01:54:43.777Z,66.79
2023-01-23T01:55:46.351Z,67.19
2023-01-23T01:56:52.907Z,66.94
2023-01-23T01:57:54.978Z,67.31
2023-01-23T01:58:58.908Z,67.12
2023-01-23T02:00:06.565Z,66.46
2023-01-23T02:01:16.883Z,66.53
2023-01-23T02:02:25.680Z,67.00
2023-01-23T02:03:30.589Z,66.65
2023-01-23T02:04:34.786Z,67.01
2023-01-23T02:05:39.688Z,65.89
2023-01-23T02:06:45.026Z,66.35
2023-01-23T02:07:54.525Z,66.02
2023-01-23T02:09:03.868Z,67.24
2023-01-23T02:10:07.875Z,66.71
2023-01-23T02:11:11.066Z,66.83
2023-01-23T02:12:13.474Z,66.10
2023-01-23T02:13:30.492Z,67.46
2023-01-23T02:14:32.498Z,66.57
2023-01-23T02:15:36.974Z,66.73
2023-01-23T02:16:41.218Z,66.99
2023-01-23T02:17:45.230Z,66.71
2023-01-23T02:18:49.762Z,66.99
2023-01-23T02:20:04.257Z,66.50
2023-01-23T02:21:08.309Z,67.13
2023-01-23T02:22:27.410Z,66.80
2023-01-23T02:23:42.552Z,66.32
2023-01-23T02:24:58.432Z,66.38
2023-01-23T02:26:06.765Z,66.35
2023-01-23T02:27:09.811Z,66.22
2023-01-23T02:28:15.008Z,66.15
2023-01-23T02:29:19.288Z,66.30
2023-01-23T02:30:29.850Z,66.69
2023-01-23T02:31:33.219Z,66.42
2023-01-23T02:32:35.890Z,67.02
2023-01-23T02:33:51.205Z,66.74
2023-01-23T02:34:58.004Z,67.13
2023-01-23T02:36:01.770Z,66.69
2023-01-23T02:37:07.320Z,66.53
2023-01-23T02:38:10.291Z,67.58
2023-01-23T02:39:15.419Z,66.88
2023-01-23T02:40:18.068Z,67.36
2023-01-23T02:41:28.658Z,66.67
2023-01-23T02:42:31.923Z,67.46
2023-01-23T02:43:38.506Z,66.98
2023-01-23T02:44:42.605Z,66.42
2023-01-23T02:45:45.818Z,67.10
2023-01-23T02:46:49.863Z,66.59
2023-01-23T02:47:52.818Z,67.09
2023-01-23T02:48:57.097Z,66.36
2023-01-23T02:50:00.986Z,67.53
2023-01-23T02:51:03.429Z,66.95
2023-01-23T02:52:07.987Z,67.73
2023-01-23T02:53:10.949Z,67.01
2023-01-23T02:54:13.883Z,67.45
2023-01-23T02:55:15.879Z,67.14
2023-01-23T02:56:19.945Z,66.84
2023-01-23T02:57:23.300Z,67.28
2023-01-23T02:58:43.886Z,67.52
2023-01-23T03:00:04.130Z,66.93
2023-01-23T03:01:11.258Z,66.70
2023-01-23T03:02:15.930Z,67.52
2023-01-23T03:03:18.852Z,66.72
2023-01-23T03:04:21.820Z,67.25
2023-01-23T03:05:23.875Z,67.15
2023-01-23T03:06:28.446Z,66.78
2023-01-23T03:07:30.381Z,67.16
2023-01-23T03:08:36.716Z,67.16
2023-01-23T03:09:39.805Z,67.27
2023-01-23T03:10:42.644Z,67.77
2023-01-23T03:11:46.827Z,66.69
2023-01-23T03:12:50.152Z,67.39
2023-01-23T03:13:53.329Z,66.75
2023-01-23T03:14:56.419Z,67.22
2023-01-23T03:15:59.470Z,67.70
2023-01-23T03:17:02.486Z,67.00
2023-01-23T03:18:08.909Z,67.40
2023-01-23T03:19:11.951Z,67.05
2023-01-23T03:20:13.935Z,66.76
2023-01-23T03:21:17.954Z,67.83
2023-01-23T03:22:20.879Z,67.30
2023-01-23T03:23:22.794Z,67.77
2023-01-23T03:24:26.285Z,67.38
2023-01-23T03:25:28.317Z,66.98
2023-01-23T03:26:31.610Z,66.76
2023-01-23T03:27:34.958Z,66.88
2023-01-23T03:28:56.721Z,66.67
2023-01-23T03:30:15.880Z,67.58
2023-01-23T03:31:18.707Z,67.66
2023-01-23T03:32:22.539Z,66.95
2023-01-23T03:33:25.639Z,67.49
2023-01-23T03:34:28.630Z,66.98
2023-01-23T03:35:30.499Z,68.01
2023-01-23T03:36:37.266Z,66.69
2023-01-23T03:37:39.665Z,67.06
2023-01-23T03:39:03.472Z,67.83
2023-01-23T03:40:25.419Z,67.06
2023-01-23T03:41:28.960Z,67.15
2023-01-23T03:42:36.269Z,67.56
2023-01-23T03:43:42.056Z,66.90
2023-01-23T03:44:44.094Z,67.07
2023-01-23T03:45:47.237Z,66.96
2023-01-23T03:46:50.860Z,67.14
2023-01-23T03:47:53.805Z,67.50
2023-01-23T03:48:55.779Z,66.86
2023-01-23T03:49:58.676Z,67.00
2023-01-23T03:51:00.681Z,66.84
2023-01-23T03:52:07.390Z,67.44
2023-01-23T03:53:09.607Z,67.25
2023-01-23T03:54:14.653Z,67.56
2023-01-23T03:55:16.613Z,67.36
2023-01-23T03:56:21.651Z,67.07
2023-01-23T03:57:23.604Z,67.48
2023-01-23T03:58:43.275Z,68.05
2023-01-23T03:59:47.950Z,67.00
2023-01-23T04:00:52.829Z,67.55
2023-01-23T04:01:57.982Z,67.15
2023-01-23T04:03:01.278Z,67.54
2023-01-23T04:04:04.592Z,68.16
2023-01-23T04:05:08.736Z,66.93
2023-01-23T04:06:10.868Z,66.95
2023-01-23T04:07:14.311Z,67.69
2023-01-23T04:08:18.328Z,67.10
2023-01-23T04:09:26.091Z,67.20
2023-01-23T04:10:29.637Z,66.98
2023-01-23T04:11:38.887Z,67.41
2023-01-23T04:12:42.664Z,67.63
2023-01-23T04:13:47.629Z,68.10
2023-01-23T04:14:49.556Z,67.71
2023-01-23T04:15:52.502Z,68.28
2023-01-23T04:16:54.642Z,67.24
2023-01-23T04:17:57.599Z,67.24
2023-01-23T04:19:00.996Z,68.10
2023-01-23T04:20:04.157Z,67.94
2023-01-23T04:21:07.003Z,67.65
2023-01-23T04:22:10.464Z,67.71
2023-01-23T04:23:22.051Z,67.42
2023-01-23T04:24:25.132Z,68.25
2023-01-23T04:25:28.538Z,68.31
2023-01-23T04:26:31.743Z,68.00
2023-01-23T04:27:33.711Z,68.35
2023-01-23T04:28:37.401Z,68.43
2023-01-23T04:29:40.904Z,67.84
2023-01-23T04:30:45.344Z,67.71
2023-01-23T04:31:54.525Z,68.34
2023-01-23T04:32:58.145Z,67.46
2023-01-23T04:34:00.135Z,67.18
2023-01-23T04:35:03.720Z,67.50
2023-01-23T04:36:07.517Z,67.73
2023-01-23T04:37:10.915Z,67.10
2023-01-23T04:38:12.794Z,67.99
2023-01-23T04:39:15.664Z,68.13
2023-01-23T04:40:21.956Z,68.17
2023-01-23T04:41:31.890Z,67.42
2023-01-23T04:42:41.271Z,67.02
2023-01-23T04:43:47.581Z,67.93
2023-01-23T04:44:50.874Z,67.74
2023-01-23T04:46:12.213Z,68.46
2023-01-23T04:47:31.291Z,67.24
2023-01-23T04:48:34.977Z,67.20
2023-01-23T04:49:37.104Z,67.78
2023-01-23T04:50:40.937Z,67.28
2023-01-23T04:51:44.514Z,67.78
2023-01-23T04:52:47.554Z,67.28
2023-01-23T04:53:49.571Z,67.39
2023-01-23T04:54:53.184Z,67.47
2023-01-23T04:55:55.173Z,67.58
2023-01-23T04:56:58.147Z,67.74
2023-01-23T04:58:00.833Z,67.73
2023-01-23T04:59:05.465Z,67.62
2023-01-23T05:00:10.670Z,68.26
2023-01-23T05:01:13.696Z,67.70
2023-01-23T05:02:15.819Z,67.15
2023-01-23T05:03:20.640Z,67.44
2023-01-23T05:04:23.144Z,67.45
2023-01-23T05:05:26.924Z,68.50
2023-01-23T05:06:33.461Z,67.91
2023-01-23T05:07:36.646Z,67.41
2023-01-23T05:08:44.395Z,68.35
2023-01-23T05:10:05.655Z,68.00
2023-01-23T05:11:07.844Z,67.69
2023-01-23T05:12:10.894Z,68.65
2023-01-23T05:13:14.025Z,68.53
2023-01-23T05:14:16.988Z,68.05
2023-01-23T05:15:22.873Z,68.63
2023-01-23T05:16:27.130Z,67.62
2023-01-23T05:17:50.580Z,67.90
2023-01-23T05:18:53.587Z,68.91
2023-01-23T05:19:55.520Z,67.98
2023-01-23T05:20:58.969Z,67.27
2023-01-23T05:22:01.295Z,68.03
2023-01-23T05:23:04.352Z,67.99
2023-01-23T05:24:17.370Z,67.78
2023-01-23T05:25:22.435Z,68.62
2023-01-23T05:26:24.523Z,68.82
2023-01-23T05:27:29.205Z,68.28
2023-01-23T05:28:31.183Z,68.32
2023-01-23T05:29:34.982Z,67.76
2023-01-23T05:30:43.157Z,67.90
2023-01-23T05:31:54.196Z,68.76
2023-01-23T05:33:14.943Z,68.78
2023-01-23T05:34:17.058Z,67.64
2023-01-23T05:35:20.157Z,67.91
2023-01-23T05:36:22.064Z,69.18
2023-01-23T05:37:25.738Z,68.33
2023-01-23T05:38:40.332Z,68.73
2023-01-23T05:39:43.713Z,68.71
2023-01-23T05:40:46.858Z,67.88
2023-01-23T05:41:51.662Z,68.31
2023-01-23T05:43:20.481Z,68.99
2023-01-23T05:44:51.393Z,69.59
2023-01-23T05:46:07.548Z,68.35
2023-01-23T05:47:28.996Z,68.51
2023-01-23T05:48:32.208Z,68.79
2023-01-23T05:49:36.027Z,68.41
2023-01-23T05:50:38.135Z,69.00
2023-01-23T05:51:41.522Z,68.69
2023-01-23T05:52:44.102Z,70.43
2023-01-23T05:53:47.286Z,70.59
2023-01-23T05:54:50.430Z,72.43
2023-01-23T05:55:53.814Z,81.25
2023-01-23T05:56:56.832Z,79.46
2023-01-23T05:58:18.145Z,71.30
2023-01-23T05:59:52.908Z,69.36
2023-01-23T06:01:17.709Z,68.11
2023-01-23T06:02:39.225Z,69.50
2023-01-23T06:04:16.276Z,68.83
2023-01-23T06:05:45.694Z,73.28
2023-01-23T06:06:53.830Z,73.07
2023-01-23T06:07:55.864Z,71.13
2023-01-23T06:08:59.939Z,70.88
2023-01-23T06:10:01.916Z,68.71
2023-01-23T06:11:05.276Z,70.60
2023-01-23T06:12:08.021Z,68.74
2023-01-23T06:13:10.888Z,68.87
2023-01-23T06:14:13.129Z,69.24
2023-01-23T06:15:16.115Z,68.88
2023-01-23T06:16:20.959Z,68.49
2023-01-23T06:17:23.993Z,67.92
2023-01-23T06:18:26.560Z,68.38
2023-01-23T06:19:30.210Z,68.40
2023-01-23T06:20:32.792Z,68.38
2023-01-23T06:21:36.037Z,68.08
2023-01-23T06:22:38.788Z,67.61
2023-01-23T06:23:47.151Z,67.96
2023-01-23T06:24:52.630Z,68.19
2023-01-23T06:25:59.436Z,67.60
2023-01-23T06:27:04.159Z,68.48
2023-01-23T06:28:06.303Z,73.65
2023-01-23T06:29:11.014Z,80.00
2023-01-23T06:30:14.116Z,79.21
2023-01-23T06:31:19.057Z,72.09
2023-01-23T06:32:29.812Z,68.40
2023-01-23T06:33:33.425Z,68.81
2023-01-23T06:34:36.584Z,67.79
2023-01-23T06:35:41.356Z,69.12
2023-01-23T06:36:43.578Z,67.67
2023-01-23T06:37:47.130Z,67.80
2023-01-23T06:38:52.387Z,67.54
2023-01-23T06:40:00.005Z,67.42
2023-01-23T06:41:02.254Z,70.29
2023-01-23T06:42:11.060Z,78.11
2023-01-23T06:43:18.100Z,71.03
2023-01-23T06:44:21.034Z,69.08
2023-01-23T06:45:23.010Z,68.09
2023-01-23T06:46:27.246Z,67.74
2023-01-23T06:47:31.050Z,68.12
2023-01-23T06:48:37.399Z,67.34
2023-01-23T06:49:39.392Z,67.84
2023-01-23T06:50:44.016Z,68.25
2023-01-23T06:51:46.175Z,68.18
2023-01-23T06:52:49.158Z,67.64
2023-01-23T06:53:51.269Z,68.27
2023-01-23T06:54:54.126Z,67.43
2023-01-23T06:55:59.994Z,67.78
2023-01-23T06:57:05.484Z,68.37
2023-01-23T06:58:07.792Z,68.71
2023-01-23T06:59:10.705Z,67.99
2023-01-23T07:00:14.747Z,67.47
2023-01-23T07:01:19.379Z,68.39
2023-01-23T07:02:46.755Z,67.98
2023-01-23T07:03:48.710Z,68.29
2023-01-23T07:04:51.685Z,67.99
2023-01-23T07:05:53.672Z,68.75
2023-01-23T07:06:56.504Z,67.63
2023-01-23T07:07:59.236Z,68.98
2023-01-23T07:09:02.713Z,69.07
2023-01-23T07:10:06.962Z,68.84
2023-01-23T07:11:09.988Z,68.24
2023-01-23T07:12:13.427Z,69.04
2023-01-23T07:13:16.295Z,68.70
2023-01-23T07:14:18.556Z,68.62
2023-01-23T07:15:24.257Z,69.17
2023-01-23T07:16:27.368Z,68.48
2023-01-23T07:17:30.591Z,68.49
2023-01-23T07:18:35.979Z,69.01
2023-01-23T07:19:42.163Z,68.58
2023-01-23T07:20:49.787Z,68.11
2023-01-23T07:21:51.839Z,68.21
2023-01-23T07:22:54.779Z,68.60
2023-01-23T07:23:56.896Z,69.09
2023-01-23T07:24:59.836Z,68.35
2023-01-23T07:26:04.071Z,68.85
2023-01-23T07:27:06.987Z,69.12
2023-01-23T07:28:09.932Z,68.70
2023-01-23T07:29:14.230Z,69.37
2023-01-23T07:30:17.213Z,68.86
2023-01-23T07:31:20.275Z,69.68
2023-01-23T07:32:22.275Z,71.08
2023-01-23T07:33:25.142Z,69.66
2023-01-23T07:34:28.436Z,70.31
2023-01-23T07:35:31.539Z,69.17
2023-01-23T07:36:33.495Z,69.47
2023-01-23T07:37:36.977Z,70.97
2023-01-23T07:38:38.854Z,69.18
2023-01-23T07:39:41.889Z,70.35
2023-01-23T07:40:45.403Z,71.12
2023-01-23T07:41:48.321Z,69.38
2023-01-23T07:42:50.347Z,69.74
2023-01-23T07:43:53.290Z,69.21
2023-01-23T07:44:56.236Z,69.77
2023-01-23T07:45:59.110Z,69.34
2023-01-23T07:47:02.115Z,69.36
2023-01-23T07:48:04.320Z,69.11
2023-01-23T07:49:07.255Z,70.08
2023-01-23T07:50:13.888Z,69.14
2023-01-23T07:51:16.873Z,69.24
2023-01-23T07:52:18.839Z,68.78
2023-01-23T07:53:21.775Z,69.30
2023-01-23T07:54:23.787Z,69.37
2023-01-23T07:55:26.832Z,69.19
2023-01-23T07:56:28.877Z,69.89
2023-01-23T07:57:33.919Z,69.77
2023-01-23T07:58:36.884Z,69.02
2023-01-23T07:59:39.844Z,69.30
2023-01-23T08:00:42.267Z,69.96
2023-01-23T08:01:45.623Z,69.67
2023-01-23T08:02:47.611Z,69.90
2023-01-23T08:03:50.731Z,69.31
2023-01-23T08:04:52.720Z,69.73
2023-01-23T08:05:57.306Z,70.33
2023-01-23T08:06:59.305Z,70.38
2023-01-23T08:08:13.084Z,70.95
2023-01-23T08:09:16.289Z,71.30
2023-01-23T08:10:19.885Z,69.82
2023-01-23T08:11:23.966Z,70.36
2023-01-23T08:12:26.969Z,72.13
2023-01-23T08:13:29.940Z,72.45
2023-01-23T08:14:33.407Z,71.44
2023-01-23T08:15:38.117Z,70.61
2023-01-23T08:16:41.087Z,69.93
2023-01-23T08:17:44.005Z,71.31
2023-01-23T08:18:45.938Z,71.24
2023-01-23T08:19:48.901Z,69.88
2023-01-23T08:20:54.320Z,71.15
2023-01-23T08:21:58.681Z,72.43
2023-01-23T08:23:02.304Z,71.52
2023-01-23T08:24:06.041Z,69.88
2023-01-23T08:25:10.050Z,69.35
2023-01-23T08:26:14.832Z,70.38
2023-01-23T08:27:17.885Z,71.99
2023-01-23T08:28:20.888Z,74.27
2023-01-23T08:29:22.805Z,72.37
2023-01-23T08:30:25.726Z,71.74
2023-01-23T08:31:28.872Z,75.05
2023-01-23T08:32:30.999Z,73.34
2023-01-23T08:33:35.131Z,72.67
2023-01-23T08:34:37.058Z,74.44
2023-01-23T08:35:40.080Z,72.74
2023-01-23T08:36:43.237Z,72.51
2023-01-23T08:37:47.475Z,73.66
2023-01-23T08:38:49.381Z,73.71
2023-01-23T08:39:52.281Z,73.99
2023-01-23T08:40:58.151Z,73.18
2023-01-23T08:42:01.179Z,72.89
2023-01-23T08:43:04.038Z,73.64
2023-01-23T08:44:07.488Z,71.76
2023-01-23T08:45:11.313Z,71.68
2023-01-23T08:46:14.216Z,73.50
2023-01-23T08:47:17.145Z,72.79
2023-01-23T08:48:20.960Z,72.59
2023-01-23T08:49:22.874Z,75.51
2023-01-23T08:50:25.753Z,72.96
2023-01-23T08:51:28.841Z,72.50
2023-01-23T08:52:31.834Z,71.62
2023-01-23T08:53:36.365Z,71.44
2023-01-23T08:54:39.457Z,70.58
2023-01-23T08:55:41.894Z,71.82
2023-01-23T08:56:44.740Z,71.56
2023-01-23T08:57:46.681Z,71.73
2023-01-23T08:58:50.449Z,71.07
2023-01-23T08:59:53.394Z,71.40
2023-01-23T09:00:55.311Z,72.72
2023-01-23T09:01:58.228Z,73.61
2023-01-23T09:03:00.152Z,73.79
2023-01-23T09:04:03.015Z,73.12
2023-01-23T09:05:05.717Z,74.80
2023-01-23T09:06:09.056Z,74.72
2023-01-23T09:07:11.949Z,74.04
2023-01-23T09:08:13.937Z,74.23
2023-01-23T09:09:18.301Z,73.54
2023-01-23T09:10:21.602Z,73.27
2023-01-23T09:11:23.926Z,74.39
2023-01-23T09:12:26.814Z,76.07
2023-01-23T09:13:30.173Z,74.99
2023-01-23T09:14:33.093Z,74.06
2023-01-23T09:15:35.111Z,73.92
2023-01-23T09:16:39.257Z,73.21
2023-01-23T09:17:42.144Z,72.19
2023-01-23T09:18:45.051Z,72.92
2023-01-23T09:19:47.837Z,73.20
2023-01-23T09:20:49.831Z,73.68
2023-01-23T09:21:54.187Z,73.11
2023-01-23T09:22:56.082Z,74.13
2023-01-23T09:23:59.072Z,73.68
2023-01-23T09:25:02.640Z,74.75
2023-01-23T09:26:07.088Z,73.90
2023-01-23T09:27:10.334Z,74.60
2023-01-23T09:28:12.727Z,73.80
2023-01-23T09:29:15.722Z,72.85
2023-01-23T09:30:19.506Z,74.74
2023-01-23T09:31:22.669Z,75.46
2023-01-23T09:32:24.668Z,74.38
2023-01-23T09:33:27.559Z,74.32
2023-01-23T09:34:30.684Z,75.09
2023-01-23T09:35:33.635Z,74.78
2023-01-23T09:36:42.771Z,73.71
2023-01-23T09:38:00.056Z,74.41
2023-01-23T09:39:03.553Z,74.55
2023-01-23T09:40:15.879Z,73.95
2023-01-23T09:41:21.498Z,74.18
2023-01-23T09:42:30.511Z,74.56
2023-01-23T09:43:39.972Z,73.64
2023-01-23T09:44:47.730Z,72.32
2023-01-23T09:45:59.030Z,72.64
2023-01-23T09:47:08.640Z,73.25
2023-01-23T09:48:21.281Z,72.90
2023-01-23T09:49:29.700Z,72.16
2023-01-23T09:50:38.654Z,73.28
2023-01-23T09:51:54.112Z,73.27
2023-01-23T09:53:01.604Z,72.91
2023-01-23T09:54:15.512Z,73.33
2023-01-23T09:55:26.696Z,72.26
2023-01-23T09:56:32.575Z,73.37
2023-01-23T09:57:39.259Z,71.50
2023-01-23T09:58:47.226Z,72.78
2023-01-23T10:00:00.657Z,73.51
2023-01-23T10:01:03.146Z,74.18
2023-01-23T10:02:16.235Z,74.84
2023-01-23T10:03:18.233Z,75.75
2023-01-23T10:04:21.941Z,76.18
2023-01-23T10:05:32.578Z,76.69
2023-01-23T10:06:58.335Z,76.82
2023-01-23T10:08:15.671Z,75.80
2023-01-23T10:09:35.545Z,74.03
2023-01-23T10:10:50.605Z,76.12
2023-01-23T10:12:01.435Z,76.87
2023-01-23T10:13:09.195Z,77.09
2023-01-23T10:14:27.972Z,77.16
2023-01-23T10:16:02.535Z,78.55
2023-01-23T10:17:13.715Z,77.07
2023-01-23T10:18:25.159Z,78.38
2023-01-23T10:19:51.642Z,77.82
2023-01-23T10:21:10.173Z,78.68
2023-01-23T10:22:30.419Z,79.15
2023-01-23T10:23:52.735Z,77.91
2023-01-23T10:24:57.449Z,76.71
2023-01-23T10:26:05.056Z,77.03
2023-01-23T10:27:18.583Z,77.90
2023-01-23T10:28:31.826Z,77.92
2023-01-23T10:29:39.961Z,77.63
2023-01-23T10:30:44.639Z,78.07
2023-01-23T10:31:51.179Z,77.38
2023-01-23T10:32:57.501Z,77.24
2023-01-23T10:34:07.484Z,78.94
2023-01-23T10:35:15.515Z,78.93
2023-01-23T10:36:25.306Z,79.32
2023-01-23T10:37:39.564Z,78.13
2023-01-23T10:38:49.438Z,78.31
2023-01-23T10:39:58.670Z,78.50
2023-01-23T10:41:14.752Z,77.62
2023-01-23T10:42:21.838Z,77.97
2023-01-23T10:43:23.869Z,78.44
2023-01-23T10:44:26.742Z,76.34
2023-01-23T10:45:30.347Z,74.79
2023-01-23T10:46:37.664Z,74.89
2023-01-23T10:47:44.170Z,74.99
2023-01-23T10:48:49.704Z,75.50
2023-01-23T10:49:52.643Z,76.36
2023-01-23T10:50:55.402Z,76.72
2023-01-23T10:51:58.847Z,76.94
2023-01-23T10:53:08.146Z,76.55
2023-01-23T10:54:30.943Z,77.44
2023-01-23T10:55:35.022Z,77.93
2023-01-23T10:56:47.544Z,78.51
2023-01-23T10:57:54.847Z,78.81
2023-01-23T10:58:58.522Z,78.19
2023-01-23T11:00:04.615Z,79.26
2023-01-23T11:01:07.415Z,78.77
2023-01-23T11:02:21.091Z,78.59
2023-01-23T11:03:31.302Z,78.29
2023-01-23T11:04:36.219Z,79.43
2023-01-23T11:05:52.162Z,78.92
2023-01-23T11:07:08.379Z,79.19
2023-01-23T11:08:23.526Z,78.60
2023-01-23T11:09:26.441Z,79.95
2023-01-23T11:10:29.373Z,79.64
2023-01-23T11:11:32.832Z,78.40
2023-01-23T11:12:48.981Z,79.93
2023-01-23T11:14:02.825Z,78.68
2023-01-23T11:15:22.607Z,79.40
2023-01-23T11:16:24.728Z,78.44
2023-01-23T11:17:34.430Z,79.52
2023-01-23T11:18:43.049Z,78.79
2023-01-23T11:19:48.017Z,79.01
2023-01-23T11:20:57.805Z,78.67
2023-01-23T11:22:02.196Z,78.28
2023-01-23T11:23:14.918Z,77.35
2023-01-23T11:24:30.568Z,78.87
2023-01-23T11:25:42.313Z,79.33
2023-01-23T11:26:44.804Z,78.01
2023-01-23T11:27:58.100Z,77.69
2023-01-23T11:29:00.127Z,78.30
2023-01-23T11:30:31.246Z,78.70
2023-01-23T11:31:34.364Z,79.83
2023-01-23T11:32:44.258Z,79.23
2023-01-23T11:33:53.493Z,78.65
2023-01-23T11:35:12.705Z,78.81
2023-01-23T11:36:37.764Z,79.96
2023-01-23T11:37:56.872Z,80.62
2023-01-23T11:39:07.681Z,80.78
2023-01-23T11:40:15.202Z,80.55
2023-01-23T11:41:18.552Z,80.72
2023-01-23T11:42:21.634Z,80.19
2023-01-23T11:43:25.065Z,80.69
2023-01-23T11:44:32.373Z,79.33
2023-01-23T11:45:55.913Z,79.70
2023-01-23T11:47:17.992Z,80.22
2023-01-23T11:48:37.404Z,79.46
2023-01-23T11:50:07.802Z,78.94
2023-01-23T11:51:19.223Z,80.02
2023-01-23T11:52:37.235Z,78.86
2023-01-23T11:53:48.235Z,80.13
2023-01-23T11:55:09.483Z,80.09
2023-01-23T11:56:40.646Z,79.14
2023-01-23T11:57:57.958Z,79.54
2023-01-23T11:59:36.845Z,79.95
2023-01-23T12:00:45.493Z,79.64
2023-01-23T12:02:03.912Z,81.05
2023-01-23T12:03:41.265Z,81.56
2023-01-23T12:05:12.847Z,82.12
2023-01-23T12:06:35.705Z,81.79
2023-01-23T12:07:49.172Z,80.07
2023-01-23T12:08:59.609Z,79.86
2023-01-23T12:10:15.391Z,80.92
2023-01-23T12:11:20.222Z,81.18
2023-01-23T12:12:38.826Z,80.57
2023-01-23T12:14:00.448Z,81.75
2023-01-23T12:15:12.898Z,81.13
2023-01-23T12:16:24.309Z,79.78
2023-01-23T12:17:36.147Z,80.60
2023-01-23T12:18:50.431Z,81.61
2023-01-23T12:20:04.762Z,80.80
2023-01-23T12:21:14.017Z,79.80
2023-01-23T12:22:24.709Z,80.42
2023-01-23T12:23:41.220Z,79.83
2023-01-23T12:25:00.931Z,80.66
2023-01-23T12:26:14.109Z,81.50
2023-01-23T12:27:24.105Z,80.91
2023-01-23T12:28:42.776Z,80.09
2023-01-23T12:30:13.176Z,80.91
2023-01-23T12:31:40.983Z,81.48
2023-01-23T12:32:57.833Z,80.89
2023-01-23T12:34:14.367Z,80.16
2023-01-23T12:35:34.370Z,80.49
2023-01-23T12:37:12.364Z,79.69
2023-01-23T12:38:27.395Z,79.58
2023-01-23T12:39:49.969Z,79.63
2023-01-23T12:40:57.178Z,80.93
2023-01-23T12:42:04.057Z,80.93
2023-01-23T12:43:13.470Z,80.32
2023-01-23T12:44:22.320Z,80.59
2023-01-23T12:45:27.258Z,80.99
2023-01-23T12:46:37.444Z,79.72
2023-01-23T12:47:44.908Z,80.51
2023-01-23T12:48:54.729Z,80.39
2023-01-23T12:50:01.395Z,79.49
2023-01-23T12:51:10.381Z,80.42
2023-01-23T12:52:21.074Z,80.17
2023-01-23T12:53:23.678Z,79.61
2023-01-23T12:54:35.687Z,79.72
2023-01-23T12:55:42.025Z,79.96
2023-01-23T12:56:46.188Z,80.51
2023-01-23T12:58:00.001Z,80.37
2023-01-23T12:59:18.683Z,80.03
2023-01-23T13:00:32.583Z,79.72
2023-01-23T13:01:51.604Z,80.61
2023-01-23T13:03:06.546Z,81.34
2023-01-23T13:04:30.960Z,80.80
2023-01-23T13:05:41.308Z,80.20
2023-01-23T13:07:09.473Z,80.50
2023-01-23T13:08:20.720Z,80.65
2023-01-23T13:09:33.874Z,81.10
2023-01-23T13:11:15.398Z,80.78
2023-01-23T13:12:22.511Z,80.65
2023-01-23T13:13:25.157Z,80.78
2023-01-23T13:15:03.479Z,80.81
2023-01-23T13:16:12.697Z,80.47
2023-01-23T13:17:31.917Z,80.52
2023-01-23T13:18:55.828Z,80.65
2023-01-23T13:20:43.650Z,80.79
2023-01-23T13:22:04.769Z,80.00
2023-01-23T13:23:24.057Z,81.65
2023-01-23T13:24:50.738Z,80.47
2023-01-23T13:26:35.825Z,80.58
2023-01-23T13:27:41.054Z,81.24
2023-01-23T13:28:47.946Z,81.62
2023-01-23T13:29:50.812Z,80.65
2023-01-23T13:31:01.922Z,80.13
2023-01-23T13:32:23.467Z,80.61
2023-01-23T13:34:06.602Z,81.26
2023-01-23T13:35:46.771Z,80.95
2023-01-23T13:36:50.701Z,80.02
2023-01-23T13:37:52.670Z,80.78
2023-01-23T13:39:05.216Z,79.99
2023-01-23T13:40:17.190Z,81.36
2023-01-23T13:41:29.702Z,80.02
2023-01-23T13:42:36.704Z,80.38
2023-01-23T13:43:54.307Z,81.86
2023-01-23T13:45:30.048Z,80.84
2023-01-23T14:20:24.715Z,80.40
2023-01-23T14:21:40.821Z,81.11
2023-01-23T14:22:44.954Z,80.53
2023-01-23T14:23:53.316Z,81.57
2023-01-23T14:24:55.855Z,81.34
2023-01-23T14:25:59.101Z,81.61
2023-01-23T14:27:09.448Z,81.08
2023-01-23T14:28:16.569Z,81.47
2023-01-23T14:29:25.922Z,81.98
2023-01-23T14:30:30.336Z,81.22
2023-01-23T14:31:35.324Z,81.36
2023-01-23T14:32:38.674Z,81.22
2023-01-23T14:33:43.904Z,81.66
2023-01-23T14:34:46.809Z,81.77
2023-01-23T14:35:50.542Z,82.24
2023-01-23T14:37:00.135Z,82.20
2023-01-23T14:38:06.861Z,80.58
2023-01-23T14:39:17.831Z,81.63
2023-01-23T14:40:27.829Z,81.29
2023-01-23T14:41:38.240Z,80.94
2023-01-23T14:42:45.155Z,80.48
2023-01-23T14:43:48.271Z,81.65
2023-01-23T14:44:54.557Z,84.18
2023-01-23T14:46:03.417Z,83.71
2023-01-23T14:47:08.203Z,81.31
2023-01-23T14:48:16.344Z,79.77
2023-01-23T14:49:25.930Z,79.66
2023-01-23T14:50:30.610Z,80.13
2023-01-23T14:51:33.555Z,79.99
2023-01-23T14:52:35.459Z,80.44
2023-01-23T14:53:42.139Z,79.74
2023-01-23T14:54:53.372Z,79.62
2023-01-23T14:55:59.858Z,80.46
2023-01-23T14:57:05.607Z,80.98
2023-01-23T14:58:13.559Z,80.85